createdAt,value
2018-12-29T00:00:47.791Z,8.50
2018-12-29T00:03:21.121Z,8.63
2018-12-29T00:05:54.809Z,9.10
2018-12-29T00:08:27.996Z,8.77
2018-12-29T00:11:02.220Z,8.70
2018-12-29T00:13:35.439Z,7.87
2018-12-29T00:16:08.151Z,8.20
2018-12-29T00:18:41.548Z,8.30
2018-12-29T00:21:14.567Z,7.83
2018-12-29T00:23:47.743Z,8.00
2018-12-29T00:26:21.260Z,8.40
2018-12-29T00:28:53.951Z,7.17
2018-12-29T00:31:27.013Z,8.03
2018-12-29T00:34:00.099Z,8.90
2018-12-29T00:36:33.013Z,8.70
2018-12-29T00:39:07.012Z,7.43
2018-12-29T00:41:40.033Z,7.27
2018-12-29T00:44:13.662Z,7.97
2018-12-29T00:46:46.749Z,7.97
2018-12-29T00:49:19.498Z,8.50
2018-12-29T00:51:52.478Z,7.73
2018-12-29T00:54:26.443Z,8.17
2018-12-29T00:56:59.430Z,8.40
2018-12-29T00:59:32.150Z,8.77
2018-12-29T01:02:05.520Z,9.40
2018-12-29T01:04:38.811Z,10.40
2018-12-29T01:07:11.827Z,9.47
2018-12-29T01:09:44.888Z,10.47
2018-12-29T01:12:18.120Z,10.43
2018-12-29T01:14:51.218Z,11.90
2018-12-29T01:17:24.182Z,10.23
2018-12-29T01:19:57.023Z,9.83
2018-12-29T01:22:30.112Z,10.57
2018-12-29T01:25:02.878Z,9.67
2018-12-29T01:27:35.905Z,10.93
2018-12-29T01:30:11.055Z,10.97
2018-12-29T01:32:43.751Z,9.73
2018-12-29T01:35:16.865Z,10.37
2018-12-29T01:37:50.131Z,10.77
2018-12-29T01:40:22.980Z,10.67
2018-12-29T01:42:56.387Z,10.23
2018-12-29T01:45:29.313Z,9.70
2018-12-29T01:48:02.322Z,10.80
2018-12-29T01:50:35.528Z,10.40
2018-12-29T01:53:09.141Z,10.80
2018-12-29T01:55:41.988Z,10.87
2018-12-29T01:58:14.834Z,10.70
2018-12-29T02:00:47.953Z,12.23
2018-12-29T02:03:21.004Z,11.07
2018-12-29T02:05:53.961Z,11.37
2018-12-29T02:08:27.493Z,9.70
2018-12-29T02:11:00.641Z,8.50
2018-12-29T02:13:33.537Z,8.97
2018-12-29T02:16:06.711Z,9.13
2018-12-29T02:18:39.544Z,8.47
2018-12-29T02:21:12.470Z,7.87
2018-12-29T02:23:45.337Z,7.70
2018-12-29T02:26:18.325Z,7.77
2018-12-29T02:28:51.517Z,7.83
2018-12-29T02:31:24.442Z,7.33
2018-12-29T02:33:58.556Z,7.50
2018-12-29T02:36:31.411Z,7.43
2018-12-29T02:39:05.148Z,7.47
2018-12-29T02:41:37.983Z,7.60
2018-12-29T02:44:10.967Z,7.70
2018-12-29T02:46:43.893Z,7.83
2018-12-29T02:49:16.950Z,7.80
2018-12-29T02:51:49.816Z,8.20
2018-12-29T02:54:22.537Z,8.63
2018-12-29T02:56:55.898Z,8.40
2018-12-29T02:59:28.914Z,8.43
2018-12-29T03:02:01.883Z,8.03
2018-12-29T03:04:34.862Z,7.13
2018-12-29T03:07:08.059Z,8.03
2018-12-29T03:09:40.704Z,9.73
2018-12-29T03:12:13.681Z,8.40
2018-12-29T03:14:46.394Z,8.90
2018-12-29T03:17:19.367Z,8.60
2018-12-29T03:19:52.673Z,9.07
2018-12-29T03:22:25.946Z,9.17
2018-12-29T03:24:59.172Z,8.77
2018-12-29T03:27:32.376Z,8.00
2018-12-29T03:30:05.414Z,8.87
2018-12-29T03:32:38.203Z,8.37
2018-12-29T03:35:11.088Z,8.03
2018-12-29T03:37:43.785Z,8.70
2018-12-29T03:40:16.895Z,9.13
2018-12-29T03:42:49.768Z,9.07
2018-12-29T03:45:22.689Z,8.67
2018-12-29T03:47:55.736Z,8.97
2018-12-29T03:50:28.603Z,9.00
2018-12-29T03:53:01.805Z,8.17
2018-12-29T03:55:34.772Z,7.83
2018-12-29T03:58:07.705Z,9.43
2018-12-29T04:00:40.930Z,12.20
2018-12-29T04:03:14.101Z,11.63
2018-12-29T04:05:47.062Z,8.53
2018-12-29T04:08:19.742Z,8.73
2018-12-29T04:10:52.637Z,8.93
2018-12-29T04:13:26.518Z,7.47
2018-12-29T04:15:59.638Z,7.97
2018-12-29T04:18:32.403Z,8.17
2018-12-29T04:21:05.585Z,9.20
2018-12-29T04:23:38.251Z,9.17
2018-12-29T04:26:11.691Z,8.67
2018-12-29T04:28:44.635Z,8.23
2018-12-29T04:31:17.609Z,8.27
2018-12-29T04:33:50.440Z,9.37
2018-12-29T04:36:23.253Z,8.37
2018-12-29T04:38:56.167Z,7.97
2018-12-29T04:41:29.009Z,7.87
2018-12-29T04:44:02.155Z,8.27
2018-12-29T04:46:35.244Z,8.53
2018-12-29T04:49:08.707Z,8.50
2018-12-29T04:51:41.549Z,8.43
2018-12-29T04:54:14.155Z,8.27
2018-12-29T04:56:49.318Z,8.30
2018-12-29T04:59:22.313Z,8.70
2018-12-29T05:01:55.329Z,9.83
2018-12-29T05:04:28.261Z,9.37
2018-12-29T05:07:01.034Z,9.50
2018-12-29T05:09:33.838Z,9.53
2018-12-29T05:12:06.933Z,9.00
2018-12-29T05:14:39.677Z,8.80
2018-12-29T05:17:12.809Z,9.30
2018-12-29T05:19:45.837Z,8.17
2018-12-29T05:22:18.602Z,8.43
2018-12-29T05:24:51.909Z,8.80
2018-12-29T05:27:26.280Z,9.50
2018-12-29T05:29:59.266Z,12.80
2018-12-29T05:32:32.227Z,8.70
2018-12-29T05:35:05.592Z,10.03
2018-12-29T05:37:38.378Z,8.73
2018-12-29T05:40:11.383Z,9.40
2018-12-29T05:42:44.163Z,8.67
2018-12-29T05:45:17.395Z,9.20
2018-12-29T05:47:50.240Z,9.53
2018-12-29T05:50:23.426Z,9.47
2018-12-29T05:52:56.325Z,7.83
2018-12-29T05:55:30.322Z,7.47
2018-12-29T05:58:03.130Z,7.80
2018-12-29T06:00:37.083Z,8.00
2018-12-29T06:03:10.290Z,8.53
2018-12-29T06:05:43.205Z,8.03
2018-12-29T06:08:16.261Z,8.20
2018-12-29T06:10:49.141Z,8.20
2018-12-29T06:13:22.110Z,8.10
2018-12-29T06:15:55.754Z,9.20
2018-12-29T06:18:29.393Z,8.37
2018-12-29T06:21:02.273Z,7.80
2018-12-29T06:23:35.133Z,8.13
2018-12-29T06:26:08.306Z,8.80
2018-12-29T06:28:41.590Z,9.10
2018-12-29T06:31:14.893Z,9.70
2018-12-29T06:33:47.679Z,9.40
2018-12-29T06:36:20.669Z,9.07
2018-12-29T06:38:53.455Z,8.90
2018-12-29T06:41:26.411Z,8.17
2018-12-29T06:43:59.392Z,8.60
2018-12-29T06:46:35.158Z,8.17
2018-12-29T06:49:07.349Z,8.33
2018-12-29T06:51:40.388Z,8.17
2018-12-29T06:54:13.575Z,7.30
2018-12-29T06:56:46.583Z,7.47
2018-12-29T06:59:19.648Z,8.00
2018-12-29T07:01:52.671Z,6.83
2018-12-29T07:04:25.758Z,7.13
2018-12-29T07:06:58.776Z,8.50
2018-12-29T07:09:32.194Z,9.20
2018-12-29T07:12:05.444Z,9.47
2018-12-29T07:14:38.349Z,7.30
2018-12-29T07:17:11.514Z,7.67
2018-12-29T07:19:44.625Z,7.63
2018-12-29T07:22:17.739Z,7.37
2018-12-29T07:24:51.138Z,7.43
2018-12-29T07:27:24.208Z,7.23
2018-12-29T07:29:57.237Z,6.27
2018-12-29T07:32:30.380Z,7.60
2018-12-29T07:35:03.519Z,6.43
2018-12-29T07:37:36.790Z,7.10
2018-12-29T07:40:10.097Z,8.53
2018-12-29T07:42:42.807Z,7.53
2018-12-29T07:47:47.850Z,7.30
2018-12-29T07:50:20.978Z,8.27
2018-12-29T07:52:54.000Z,7.83
2018-12-29T07:55:28.741Z,10.47
2018-12-29T07:58:02.419Z,8.53
2018-12-29T08:00:35.490Z,7.50
2018-12-29T08:03:08.781Z,7.17
2018-12-29T08:05:43.220Z,9.40
2018-12-29T08:08:16.468Z,8.23
2018-12-29T08:10:50.142Z,11.83
2018-12-29T08:13:23.649Z,11.73
2018-12-29T08:15:57.042Z,8.50
2018-12-29T08:18:30.382Z,9.63
2018-12-29T08:21:04.057Z,7.40
2018-12-29T08:23:37.193Z,7.80
2018-12-29T08:26:10.735Z,8.90
2018-12-29T08:28:45.267Z,12.63
2018-12-29T08:31:18.508Z,8.97
2018-12-29T08:33:51.721Z,10.73
2018-12-29T08:36:24.956Z,7.93
2018-12-29T08:38:57.826Z,7.77
2018-12-29T08:41:30.705Z,8.87
2018-12-29T08:44:03.719Z,6.20
2018-12-29T08:46:36.782Z,10.20
2018-12-29T08:49:09.765Z,9.23
2018-12-29T08:51:42.869Z,8.43
2018-12-29T08:54:15.778Z,8.13
2018-12-29T08:56:48.908Z,6.47
2018-12-29T08:59:22.848Z,8.17
2018-12-29T09:01:56.146Z,8.20
2018-12-29T09:04:29.252Z,7.37
2018-12-29T09:07:04.518Z,6.70
2018-12-29T09:09:38.127Z,6.90
2018-12-29T09:12:11.724Z,6.47
2018-12-29T09:14:44.951Z,6.87
2018-12-29T09:17:18.198Z,7.97
2018-12-29T09:19:51.999Z,6.40
2018-12-29T09:22:24.914Z,9.03
2018-12-29T09:24:57.687Z,7.30
2018-12-29T09:27:30.821Z,6.97
2018-12-29T09:30:03.753Z,7.63
2018-12-29T09:32:36.813Z,6.87
2018-12-29T09:35:10.013Z,9.43
2018-12-29T09:37:43.242Z,8.20
2018-12-29T09:40:16.540Z,7.87
2018-12-29T09:42:49.439Z,8.30
2018-12-29T09:45:23.208Z,8.27
2018-12-29T09:48:01.493Z,10.13
2018-12-29T09:50:34.691Z,11.00
2018-12-29T09:53:08.013Z,7.80
2018-12-29T09:55:43.764Z,9.63
2018-12-29T09:58:17.266Z,7.03
2018-12-29T10:00:50.665Z,7.57
2018-12-29T10:03:23.844Z,7.50
2018-12-29T10:05:57.148Z,7.00
2018-12-29T10:08:30.134Z,7.30
2018-12-29T10:11:03.271Z,7.00
2018-12-29T10:13:35.782Z,6.50
2018-12-29T10:16:08.733Z,7.57
2018-12-29T10:18:41.446Z,6.70
2018-12-29T10:21:14.878Z,6.10
2018-12-29T10:23:48.054Z,6.20
2018-12-29T10:26:21.616Z,6.00
2018-12-29T10:28:56.328Z,7.73
2018-12-29T10:31:29.298Z,9.17
2018-12-29T10:34:02.397Z,7.43
2018-12-29T10:36:35.361Z,5.47
2018-12-29T10:39:10.210Z,5.73
2018-12-29T10:41:43.661Z,6.20
2018-12-29T10:44:16.673Z,7.17
2018-12-29T10:46:50.221Z,6.53
2018-12-29T10:49:23.346Z,5.20
2018-12-29T10:51:56.768Z,6.40
2018-12-29T10:54:30.844Z,5.30
2018-12-29T10:57:04.291Z,5.27
2018-12-29T10:59:37.149Z,5.43
2018-12-29T11:02:10.660Z,5.20
2018-12-29T11:04:43.996Z,4.87
2018-12-29T11:07:16.867Z,4.97
2018-12-29T11:09:50.081Z,7.57
2018-12-29T11:12:23.172Z,5.80
2018-12-29T11:14:56.564Z,6.77
2018-12-29T11:17:29.827Z,4.90
2018-12-29T11:20:03.095Z,5.33
2018-12-29T11:22:36.701Z,5.03
2018-12-29T11:25:10.596Z,4.20
2018-12-29T11:27:43.905Z,4.83
2018-12-29T11:30:17.410Z,4.70
2018-12-29T11:32:50.897Z,4.80
2018-12-29T11:35:28.803Z,4.60
2018-12-29T11:37:59.417Z,4.37
2018-12-29T11:40:32.723Z,4.10
2018-12-29T11:43:06.018Z,4.07
2018-12-29T11:45:39.242Z,4.13
2018-12-29T11:48:13.230Z,4.33
2018-12-29T11:50:47.390Z,3.97
2018-12-29T11:53:20.469Z,4.53
2018-12-29T11:55:53.957Z,5.23
2018-12-29T11:58:27.310Z,4.77
2018-12-29T12:01:00.487Z,5.70
2018-12-29T12:03:33.653Z,6.53
2018-12-29T12:06:06.814Z,6.30
2018-12-29T12:08:40.216Z,6.90
2018-12-29T12:11:14.806Z,8.60
2018-12-29T12:13:48.405Z,6.73
2018-12-29T12:16:21.557Z,4.17
2018-12-29T12:18:54.953Z,4.60
2018-12-29T12:21:27.981Z,4.83
2018-12-29T12:24:01.314Z,4.97
2018-12-29T12:26:34.703Z,6.67
2018-12-29T12:29:07.645Z,4.33
2018-12-29T12:31:41.359Z,5.20
2018-12-29T12:34:14.599Z,5.10
2018-12-29T12:36:47.762Z,7.17
2018-12-29T12:39:20.819Z,6.10
2018-12-29T12:41:54.032Z,7.77
2018-12-29T12:44:27.358Z,5.73
2018-12-29T12:47:00.609Z,6.10
2018-12-29T12:49:33.737Z,6.57
2018-12-29T12:52:07.049Z,5.00
2018-12-29T12:54:40.450Z,5.13
2018-12-29T12:57:14.869Z,5.93
2018-12-29T12:59:48.532Z,5.60
2018-12-29T13:02:21.420Z,5.93
2018-12-29T13:04:55.931Z,5.63
2018-12-29T13:07:33.693Z,5.30
2018-12-29T13:10:09.253Z,5.40
2018-12-29T13:12:42.587Z,5.20
2018-12-29T13:15:19.463Z,5.40
2018-12-29T13:17:52.577Z,5.03
2018-12-29T13:20:25.792Z,5.57
2018-12-29T13:22:59.689Z,7.60
2018-12-29T13:25:32.782Z,6.40
2018-12-29T13:28:06.084Z,5.70
2018-12-29T13:30:39.760Z,13.40
2018-12-29T13:33:13.017Z,6.47
2018-12-29T13:35:46.158Z,5.53
2018-12-29T13:38:19.485Z,6.10
2018-12-29T13:40:53.394Z,6.53
2018-12-29T13:43:26.857Z,5.80
2018-12-29T13:46:00.236Z,5.73
2018-12-29T13:48:33.228Z,6.00
2018-12-29T13:51:06.505Z,5.90
2018-12-29T13:53:41.405Z,6.70
2018-12-29T13:56:14.643Z,6.23
2018-12-29T13:58:48.593Z,6.83
2018-12-29T14:01:21.671Z,5.67
2018-12-29T14:03:55.183Z,7.63
2018-12-29T14:06:28.629Z,6.10
2018-12-29T14:09:03.248Z,6.33
2018-12-29T14:11:36.767Z,5.57
2018-12-29T14:14:10.619Z,5.00
2018-12-29T14:16:44.523Z,7.67
2018-12-29T14:19:17.685Z,6.53
2018-12-29T14:21:50.918Z,6.40
2018-12-29T14:24:24.303Z,6.40
2018-12-29T14:26:57.054Z,5.67
2018-12-29T14:29:30.280Z,6.73
2018-12-29T14:32:04.606Z,8.00
2018-12-29T14:34:37.789Z,5.73
2018-12-29T14:37:11.265Z,4.97
2018-12-29T14:39:44.950Z,5.63
2018-12-29T14:42:18.537Z,6.13
2018-12-29T14:44:51.976Z,5.50
2018-12-29T14:47:25.000Z,5.37
2018-12-29T14:50:00.457Z,6.40
2018-12-29T14:52:36.314Z,6.10
2018-12-29T14:55:09.484Z,5.97
2018-12-29T14:57:43.721Z,7.27
2018-12-29T15:00:17.379Z,6.67
2018-12-29T15:02:50.738Z,5.90
2018-12-29T15:05:24.092Z,6.43
2018-12-29T15:07:57.208Z,6.70
2018-12-29T15:10:30.799Z,6.20
2018-12-29T15:13:04.519Z,6.37
2018-12-29T15:15:39.306Z,5.57
2018-12-29T15:18:12.752Z,5.90
2018-12-29T15:20:46.857Z,5.33
2018-12-29T15:23:21.710Z,5.57
2018-12-29T15:25:55.126Z,6.57
2018-12-29T15:28:28.235Z,5.90
2018-12-29T15:31:04.653Z,5.40
2018-12-29T15:33:38.699Z,5.73
2018-12-29T15:36:16.005Z,5.90
2018-12-29T15:38:46.927Z,6.50
2018-12-29T15:41:20.335Z,5.93
2018-12-29T15:43:54.037Z,6.20
2018-12-29T15:46:27.375Z,5.73
2018-12-29T15:49:00.292Z,5.73
2018-12-29T15:51:33.944Z,5.93
2018-12-29T15:54:07.034Z,6.40
2018-12-29T15:56:40.925Z,6.43
2018-12-29T15:59:15.534Z,6.27
2018-12-29T16:01:48.690Z,5.97
2018-12-29T16:04:22.323Z,5.67
2018-12-29T16:06:55.405Z,6.80
2018-12-29T16:09:27.865Z,7.10
2018-12-29T16:12:01.383Z,6.93
2018-12-29T16:14:35.529Z,6.30
2018-12-29T16:17:08.946Z,6.10
2018-12-29T16:19:42.113Z,6.53
2018-12-29T16:22:15.078Z,7.40
2018-12-29T16:24:48.260Z,7.50
2018-12-29T16:27:21.720Z,7.80
2018-12-29T16:29:54.898Z,8.70
2018-12-29T16:32:28.769Z,7.90
2018-12-29T16:35:02.229Z,7.40
2018-12-29T16:37:35.198Z,7.17
2018-12-29T16:40:09.098Z,6.90
2018-12-29T16:42:43.258Z,5.90
2018-12-29T16:45:16.659Z,6.47
2018-12-29T16:47:50.081Z,6.50
2018-12-29T16:50:23.674Z,6.90
2018-12-29T16:53:00.079Z,7.87
2018-12-29T16:55:33.392Z,8.93
2018-12-29T16:58:07.189Z,10.47
2018-12-29T17:00:41.034Z,10.77
2018-12-29T17:03:14.875Z,9.40
2018-12-29T17:05:48.793Z,8.43
2018-12-29T17:08:22.041Z,8.37
2018-12-29T17:10:55.432Z,7.70
2018-12-29T17:13:28.567Z,7.63
2018-12-29T17:16:02.291Z,6.63
2018-12-29T17:18:35.674Z,6.80
2018-12-29T17:21:15.222Z,6.20
2018-12-29T17:23:50.707Z,5.80
2018-12-29T17:26:24.591Z,7.20
2018-12-29T17:29:00.152Z,6.90
2018-12-29T17:31:33.185Z,7.27
2018-12-29T17:34:07.031Z,8.57
2018-12-29T17:36:42.081Z,9.07
2018-12-29T17:39:15.622Z,7.97
2018-12-29T17:41:48.932Z,8.00
2018-12-29T17:44:22.121Z,8.57
2018-12-29T17:46:55.323Z,7.00
2018-12-29T17:49:28.199Z,7.40
2018-12-29T17:52:01.909Z,6.27
2018-12-29T17:54:35.861Z,6.43
2018-12-29T17:57:09.029Z,6.70
2018-12-29T17:59:42.352Z,6.50
2018-12-29T18:02:15.553Z,7.33
2018-12-29T18:04:49.039Z,6.93
2018-12-29T18:07:22.243Z,6.80
2018-12-29T18:09:57.284Z,6.77
2018-12-29T18:12:30.377Z,6.93
2018-12-29T18:15:03.986Z,7.40
2018-12-29T18:17:37.195Z,7.33
2018-12-29T18:20:10.796Z,7.63
2018-12-29T18:22:46.364Z,8.37
2018-12-29T18:25:20.270Z,7.17
2018-12-29T18:27:55.131Z,7.53
2018-12-29T18:30:31.450Z,6.80
2018-12-29T18:33:05.702Z,6.73
2018-12-29T18:35:39.540Z,7.33
2018-12-29T18:38:13.279Z,7.53
2018-12-29T18:40:49.676Z,6.57
2018-12-29T18:43:23.300Z,6.50
2018-12-29T18:45:56.759Z,6.27
2018-12-29T18:48:29.967Z,6.10
2018-12-29T18:51:05.148Z,6.00
2018-12-29T18:53:38.354Z,5.93
2018-12-29T18:56:11.753Z,6.20
2018-12-29T18:58:45.665Z,6.20
2018-12-29T19:01:22.165Z,6.07
2018-12-29T19:03:55.781Z,6.07
2018-12-29T19:06:30.244Z,6.77
2018-12-29T19:09:05.041Z,7.67
2018-12-29T19:11:38.808Z,7.13
2018-12-29T19:14:12.563Z,8.07
2018-12-29T19:16:45.784Z,7.07
2018-12-29T19:19:19.874Z,6.80
2018-12-29T19:21:53.354Z,7.13
2018-12-29T19:24:26.652Z,6.70
2018-12-29T19:27:07.392Z,6.90
2018-12-29T19:29:40.819Z,8.13
2018-12-29T19:32:14.819Z,7.80
2018-12-29T19:34:48.453Z,7.17
2018-12-29T19:37:23.385Z,7.77
2018-12-29T19:39:56.912Z,7.23
2018-12-29T19:42:30.242Z,7.33
2018-12-29T19:45:04.428Z,6.93
2018-12-29T19:47:42.239Z,7.60
2018-12-29T19:50:15.827Z,7.13
2018-12-29T19:52:57.048Z,8.43
2018-12-29T19:55:31.947Z,7.17
2018-12-29T19:58:05.207Z,7.50
2018-12-29T20:00:38.892Z,7.73
2018-12-29T20:03:12.600Z,8.10
2018-12-29T20:05:52.804Z,8.20
2018-12-29T20:08:25.996Z,8.57
2018-12-29T20:10:59.455Z,7.87
2018-12-29T20:13:33.138Z,9.03
2018-12-29T20:16:06.350Z,7.60
2018-12-29T20:18:40.668Z,7.20
2018-12-29T20:21:14.299Z,8.17
2018-12-29T20:23:47.673Z,7.20
2018-12-29T20:26:21.269Z,6.93
2018-12-29T20:28:55.330Z,7.30
2018-12-29T20:31:32.312Z,8.03
2018-12-29T20:34:08.736Z,7.60
2018-12-29T20:36:44.553Z,7.60
2018-12-29T20:39:21.253Z,7.63
2018-12-29T20:41:55.366Z,7.87
2018-12-29T20:44:30.235Z,8.67
2018-12-29T20:47:04.010Z,7.90
2018-12-29T20:49:37.585Z,9.07
2018-12-29T20:52:10.937Z,9.00
2018-12-29T20:54:44.270Z,8.53
2018-12-29T20:57:19.398Z,8.20
2018-12-29T20:59:56.420Z,8.83
2018-12-29T21:02:29.800Z,8.27
2018-12-29T21:05:04.942Z,8.90
2018-12-29T21:07:38.156Z,9.20
2018-12-29T21:10:11.814Z,9.30
2018-12-29T21:12:45.083Z,9.30
2018-12-29T21:15:18.201Z,8.20
2018-12-29T21:17:51.372Z,8.50
2018-12-29T21:20:24.555Z,7.90
2018-12-29T21:22:57.545Z,7.97
2018-12-29T21:25:30.986Z,8.33
2018-12-29T21:28:04.713Z,8.90
2018-12-29T21:30:38.240Z,8.63
2018-12-29T21:33:11.685Z,8.97
2018-12-29T21:35:47.172Z,8.43
2018-12-29T21:38:23.475Z,7.97
2018-12-29T21:40:56.718Z,7.37
2018-12-29T21:43:29.904Z,8.17
2018-12-29T21:46:04.558Z,8.00
2018-12-29T21:48:38.226Z,7.53
2018-12-29T21:51:11.196Z,7.07
2018-12-29T21:53:44.230Z,6.90
2018-12-29T21:56:17.507Z,6.90
2018-12-29T21:58:51.012Z,8.87
2018-12-29T22:01:23.929Z,8.33
2018-12-29T22:03:57.125Z,9.53
2018-12-29T22:06:30.780Z,10.67
2018-12-29T22:09:05.703Z,10.27
2018-12-29T22:11:39.287Z,10.17
2018-12-29T22:14:12.228Z,9.40
2018-12-29T22:16:45.220Z,8.80
2018-12-29T22:19:18.927Z,11.23
2018-12-29T22:21:53.763Z,10.30
2018-12-29T22:24:27.403Z,7.40
2018-12-29T22:27:00.681Z,7.33
2018-12-29T22:29:34.331Z,7.07
2018-12-29T22:32:07.747Z,11.23
2018-12-29T22:34:41.397Z,10.43
2018-12-29T22:37:14.635Z,7.67
2018-12-29T22:39:47.487Z,9.13
2018-12-29T22:42:21.106Z,13.20
2018-12-29T22:44:54.579Z,7.03
2018-12-29T22:47:28.015Z,7.60
2018-12-29T22:50:01.427Z,10.53
2018-12-29T22:52:34.495Z,18.37
2018-12-29T22:55:07.772Z,8.93
2018-12-29T22:57:41.193Z,15.93
2018-12-29T23:00:33.367Z,13.27
2018-12-29T23:03:06.916Z,9.93
2018-12-29T23:05:41.065Z,8.03
2018-12-29T23:08:14.052Z,6.63
2018-12-29T23:10:47.027Z,7.27
2018-12-29T23:13:20.614Z,11.57
2018-12-29T23:15:53.696Z,11.43
2018-12-29T23:18:28.321Z,10.13
2018-12-29T23:21:01.459Z,13.50
2018-12-29T23:23:34.807Z,11.63
2018-12-29T23:26:07.903Z,10.37
2018-12-29T23:28:40.863Z,8.13
2018-12-29T23:31:13.958Z,7.80
2018-12-29T23:33:46.941Z,7.17
2018-12-29T23:36:20.240Z,9.47
2018-12-29T23:38:53.387Z,8.50
2018-12-29T23:41:26.714Z,7.30
2018-12-29T23:44:01.570Z,7.93
2018-12-29T23:46:34.484Z,7.83
2018-12-29T23:49:07.334Z,7.70
2018-12-29T23:51:40.133Z,8.10
2018-12-29T23:54:13.440Z,7.83
2018-12-29T23:56:46.426Z,7.80
2018-12-29T23:59:19.230Z,7.37
